Time;durP1;ratioP1;P1;durP2;ratioP2;P2;SDS_P1;SDS_P2;PMS_P1;PMS_P2;Temp;Humidity;BMP_temperature;BMP_pressure;BME280_temperature;BME280_humidity;BME280_pressure;Samples;Min_cycle;Max_cycle;Signal;HPM_P1;HPM_P2
2022/05/30 00:00:35;;;;;;;2.35;1.23;;;;;;;;;;5018516;28;20084;-88
2022/05/30 00:03:01;;;;;;;7.45;1.00;;;;;;;;;;5035090;28;20508;-89
2022/05/30 00:05:30;;;;;;;6.05;1.65;;;;;;;;;;5034824;28;20044;-88
2022/05/30 00:07:56;;;;;;;2.30;0.90;;;;;;;;;;5018190;28;20051;-91
2022/05/30 00:10:22;;;;;;;6.03;2.17;;;;;;;;;;5018574;28;20045;-83
2022/05/30 00:12:48;;;;;;;2.78;1.30;;;;;;;;;;5018013;28;20095;-89
2022/05/30 00:15:17;;;;;;;5.45;1.20;;;;;;;;;;5017844;28;20051;-89
2022/05/30 00:17:43;;;;;;;1.52;1.15;;;;;;;;;;5017646;28;20077;-90
2022/05/30 00:20:10;;;;;;;3.92;1.20;;;8.30;99.90;;;;;;5019168;28;20048;-89
2022/05/30 00:22:36;;;;;;;2.75;1.17;;;;;;;;;;5033945;28;20132;-90
2022/05/30 00:25:02;;;;;;;4.97;1.40;;;;;;;;;;5017363;28;20135;-88
2022/05/30 00:27:28;;;;;;;2.38;1.05;;;;;;;;;;5017605;28;20539;-89
2022/05/30 00:29:54;;;;;;;4.18;1.05;;;;;;;;;;5033598;28;20399;-88
2022/05/30 00:32:21;;;;;;;3.70;1.35;;;;;;;;;;5031835;28;20195;-89
2022/05/30 00:34:47;;;;;;;1.95;1.15;;;;;;;;;;5016788;28;20497;-87
2022/05/30 00:37:13;;;;;;;2.75;1.23;;;;;;;;;;5019577;28;20440;-85
2022/05/30 00:39:39;;;;;;;7.53;1.77;;;;;;;;;;5034913;28;20045;-86
2022/05/30 00:42:07;;;;;;;2.45;1.20;;;;;;;;;;5036477;28;20041;-84
2022/05/30 00:44:34;;;;;;;5.45;2.00;;;;;;;;;;5020124;28;20131;-85
2022/05/30 00:47:00;;;;;;;5.00;1.27;;;;;;;;;;5020050;28;20041;-84
2022/05/30 00:49:26;;;;;;;2.05;1.35;;;;;;;;;;5037131;28;20045;-84
2022/05/30 00:51:55;;;;;;;2.97;1.75;;;;;;;;;;5020215;28;20374;-84
2022/05/30 00:54:22;;;;;;;1.77;1.50;;;;;;;;;;5036519;28;20041;-86
2022/05/30 00:56:51;;;;;;;5.35;1.48;;;;;;;;;;5036072;28;20045;-83
2022/05/30 00:59:17;;;;;;;2.38;1.27;;;;;;;;;;5019512;28;20091;-84
2022/05/30 01:01:43;;;;;;;1.85;1.65;;;;;;;;;;5019702;28;20045;-85
2022/05/30 01:07:08;;;;;;;2.38;1.42;;;;;;;;;;4957086;28;20176;-86
2022/05/30 01:09:36;;;;;;;3.83;1.33;;;;;;;;;;4957426;28;20388;-84
2022/05/30 01:12:07;;;;;;;4.55;1.45;;;;;;;;;;4955611;28;20067;-84
2022/05/30 01:14:43;;;;;;;2.63;1.00;;;;;;;;;;4956634;28;20038;-84
2022/05/30 01:17:12;;;;;;;3.90;1.30;;;;;;;;;;4956930;28;20518;-84
2022/05/30 01:19:53;;;;;;;1.48;1.35;;;;;;;;;;4956288;28;20101;-84
2022/05/30 01:22:30;;;;;;;1.70;0.93;;;;;;;;;;4937553;29;20043;-83
2022/05/30 01:25:03;;;;;;;2.35;1.10;;;;;;;;;;4921690;29;20062;-83
2022/05/30 01:27:33;;;;;;;2.10;1.10;;;;;;;;;;4937171;28;20051;-83
2022/05/30 01:30:02;;;;;;;2.45;1.35;;;;;;;;;;4937574;29;20050;-82
2022/05/30 01:32:28;;;;;;;2.10;1.08;;;;;;;;;;4940597;28;20058;-83
2022/05/30 01:34:54;;;;;;;2.75;1.00;;;;;;;;;;4940687;28;20094;-82
2022/05/30 01:37:20;;;;;;;3.55;1.30;;;;;;;;;;4940366;28;20063;-82
2022/05/30 01:39:47;;;;;;;1.83;1.20;;;;;;;;;;4956635;28;20182;-83
2022/05/30 01:42:15;;;;;;;6.55;1.58;;;;;;;;;;4966938;28;20038;-82
2022/05/30 01:44:41;;;;;;;2.83;1.73;;;;;;;;;;4991549;28;20056;-82
2022/05/30 01:47:07;;;;;;;2.38;1.50;;;;;;;;;;5014709;28;20480;-82
2022/05/30 01:49:33;;;;;;;3.72;1.27;;;;;;;;;;4999180;28;20493;-82
2022/05/30 01:51:59;;;;;;;5.03;1.30;;;;;;;;;;5016014;28;20048;-82
2022/05/30 01:54:25;;;;;;;2.10;1.35;;;;;;;;;;4998341;28;20049;-83
2022/05/30 01:56:51;;;;;;;4.53;1.50;;;;;;;;;;4999437;28;20434;-83
2022/05/30 01:59:17;;;;;;;2.30;1.33;;;;;;;;;;4998906;28;20409;-83
2022/05/30 02:01:45;;;;;;;2.42;1.73;;;;;;;;;;5015127;28;20041;-83
2022/05/30 02:04:15;;;;;;;4.55;1.70;;;;;;;;;;5015944;28;20046;-85
2022/05/30 02:06:41;;;;;;;6.03;1.70;;;;;;;;;;4998854;28;20401;-82
2022/05/30 02:09:07;;;;;;;3.28;1.50;;;;;;;;;;4998984;28;20124;-84
2022/05/30 02:11:33;;;;;;;1.42;1.25;;;;;;;;;;4998968;28;20046;-84
2022/05/30 02:13:59;;;;;;;2.38;1.45;;;;;;;;;;5013841;28;20041;-85
2022/05/30 02:19:10;;;;;;;2.60;1.55;;;;;;;;;;5014719;28;20053;-83
2022/05/30 02:21:36;;;;;;;1.60;1.50;;;;;;;;;;4998622;28;20041;-85
2022/05/30 02:24:06;;;;;;;2.97;1.85;;;;;;;;;;4997605;28;20085;-86
2022/05/30 02:26:33;;;;;;;2.38;1.52;;;;;;;;;;5015705;28;20148;-84
2022/05/30 02:28:59;;;;;;;6.32;1.83;;;;;;;;;;5014517;28;20128;-86
2022/05/30 02:31:26;;;;;;;4.72;1.80;;;;;;;;;;5014640;28;20516;-83
2022/05/30 02:36:39;;;;;;;3.80;2.05;;;;;;;;;;5014583;28;20058;-85
2022/05/30 02:39:11;;;;;;;5.18;1.85;;;8.20;99.90;;;;;;4997948;28;20045;-85
2022/05/30 02:41:37;;;;;;;4.88;2.00;;;;;;;;;;4998426;28;20404;-86
2022/05/30 02:44:04;;;;;;;4.28;2.22;;;;;;;;;;5013259;28;20406;-86
2022/05/30 02:46:30;;;;;;;5.13;2.00;;;;;;;;;;4994899;28;20065;-86
2022/05/30 02:48:56;;;;;;;2.45;2.00;;;;;;;;;;4978921;28;20050;-85
2022/05/30 02:51:22;;;;;;;4.03;1.85;;;;;;;;;;4978886;28;20042;-86
2022/05/30 02:53:48;;;;;;;4.28;2.35;;;;;;;;;;4994992;28;20046;-86
2022/05/30 02:56:15;;;;;;;4.55;2.13;;;;;;;;;;5008872;28;20041;-87
2022/05/30 02:58:42;;;;;;;4.90;2.25;;;;;;;;;;4998285;28;20132;-88
2022/05/30 03:01:08;;;;;;;3.60;2.17;;;;;;;;;;5014815;28;20041;-87
2022/05/30 03:03:35;;;;;;;2.60;2.00;;;;;;;;;;4998422;28;20136;-90
2022/05/30 03:06:02;;;;;;;4.03;2.38;;;;;;;;;;4996943;28;20128;-90
2022/05/30 03:08:28;;;;;;;4.10;2.33;;;;;;;;;;4998187;28;20049;-85
2022/05/30 03:10:54;;;;;;;5.88;2.55;;;;;;;;;;5014457;28;20037;-89
2022/05/30 03:13:20;;;;;;;5.00;2.38;;;;;;;;;;4998126;28;20046;-86
2022/05/30 03:15:46;;;;;;;8.23;2.30;;;;;;;;;;4996476;28;20041;-87
2022/05/30 03:18:12;;;;;;;6.10;2.60;;;;;;;;;;4997686;28;20498;-88
2022/05/30 03:20:38;;;;;;;5.10;2.60;;;;;;;;;;4998179;28;20068;-88
2022/05/30 03:23:04;;;;;;;4.72;2.67;;;;;;;;;;4997880;28;20099;-89
2022/05/30 03:25:31;;;;;;;4.55;2.20;;;;;;;;;;4997277;28;20050;-86
2022/05/30 03:27:57;;;;;;;3.90;2.42;;;;;;;;;;5014563;28;20072;-87
2022/05/30 03:30:23;;;;;;;8.73;2.75;;;;;;;;;;4998267;28;20139;-91
2022/05/30 03:32:50;;;;;;;3.75;2.47;;;;;;;;;;5042781;28;20134;-89
2022/05/30 03:35:16;;;;;;;11.48;3.13;;;;;;;;;;5034382;28;20555;-86
2022/05/30 03:37:43;;;;;;;2.97;2.30;;;;;;;;;;5033485;28;20041;-86
2022/05/30 03:40:10;;;;;;;6.22;2.35;;;;;;;;;;5015244;28;20378;-86
2022/05/30 03:42:36;;;;;;;6.18;3.00;;;;;;;;;;5033690;28;20044;-88
2022/05/30 03:45:02;;;;;;;4.45;2.40;;;;;;;;;;5033937;28;20576;-83
2022/05/30 03:47:28;;;;;;;3.65;2.17;;;;;;;;;;5015794;28;20076;-82
2022/05/30 03:50:01;;;;;;;5.05;2.22;;;;;;;;;;5017119;28;20052;-82
2022/05/30 03:52:27;;;;;;;3.45;1.95;;;;;;;;;;5017275;28;20052;-83
2022/05/30 03:54:53;;;;;;;3.80;2.10;;;;;;;;;;5017256;28;20080;-83
2022/05/30 03:57:20;;;;;;;3.45;2.40;;;;;;;;;;5033412;28;20049;-84
2022/05/30 03:59:46;;;;;;;3.35;2.13;;;;;;;;;;5016842;28;20052;-83
2022/05/30 04:02:12;;;;;;;4.00;2.33;;;;;;;;;;5016503;28;20124;-83
2022/05/30 04:04:38;;;;;;;7.32;2.30;;;;;;;;;;5017127;28;20057;-83
2022/05/30 04:07:04;;;;;;;4.28;1.80;;;;;;;;;;5016375;28;20072;-84
2022/05/30 04:09:30;;;;;;;2.60;1.95;;;;;;;;;;5016835;28;20091;-83
2022/05/30 04:11:56;;;;;;;2.72;2.10;;;;;;;;;;5019854;28;20509;-83
2022/05/30 04:14:22;;;;;;;4.50;1.80;;;;;;;;;;5037370;28;20041;-83
2022/05/30 04:16:48;;;;;;;3.50;2.00;;;;;;;;;;5038418;28;20421;-83
2022/05/30 04:19:15;;;;;;;4.00;2.15;;;;;;;;;;5037272;28;20140;-83
2022/05/30 04:21:41;;;;;;;4.75;2.05;;;;;;;;;;5020085;28;20041;-84
2022/05/30 04:24:07;;;;;;;5.60;2.22;;;;;;;;;;5037158;28;20048;-84
2022/05/30 04:26:33;;;;;;;6.65;2.05;;;;;;;;;;5021891;28;20102;-83
2022/05/30 04:28:59;;;;;;;2.75;1.95;;;;;;;;;;5036983;28;20152;-83
2022/05/30 04:31:25;;;;;;;2.03;1.77;;;;;;;;;;5036638;28;20521;-84
2022/05/30 04:33:51;;;;;;;5.80;1.95;;;;;;;;;;5036819;28;20452;-85
2022/05/30 04:36:17;;;;;;;1.65;1.42;;;;;;;;;;5019703;28;20075;-83
2022/05/30 04:38:43;;;;;;;3.40;2.08;;;;;;;;;;5015635;28;20230;-84
2022/05/30 04:41:09;;;;;;;3.53;1.90;;;;;;;;;;5000716;28;20486;-84
2022/05/30 04:43:35;;;;;;;1.98;1.70;;;;;;;;;;5017065;28;20049;-84
2022/05/30 04:46:04;;;;;;;2.65;1.83;;;;;;;;;;5016972;28;20080;-83
2022/05/30 04:48:30;;;;;;;4.85;1.95;;;;;;;;;;5015615;28;20513;-83
2022/05/30 04:50:56;;;;;;;2.35;1.70;;;;;;;;;;5000488;28;20128;-83
2022/05/30 04:53:24;;;;;;;4.22;1.70;;;;;;;;;;5017129;28;20045;-84
2022/05/30 04:55:50;;;;;;;2.47;1.75;;;;;;;;;;5029416;28;20052;-85
2022/05/30 04:58:16;;;;;;;4.00;2.05;;;;;;;;;;5037881;28;20106;-84
2022/05/30 05:00:45;;;;;;;4.60;1.60;;;;;;;;;;5013066;28;20042;-84
2022/05/30 05:03:12;;;;;;;5.18;2.00;;;;;;;;;;5001787;28;20052;-83
2022/05/30 05:05:38;;;;;;;5.90;1.92;;;;;;;;;;5002446;28;20110;-84
2022/05/30 05:08:07;;;;;;;3.90;1.55;;;;;;;;;;5001601;28;20033;-84
2022/05/30 05:10:53;;;;;;;2.67;1.75;;;;;;;;;;5016817;28;20053;-84
2022/05/30 05:13:19;;;;;;;3.30;2.33;;;;;;;;;;4999952;28;20041;-84
2022/05/30 05:15:46;;;;;;;4.32;1.67;;;;;;;;;;4999962;28;20099;-84
2022/05/30 05:18:12;;;;;;;2.55;1.50;;;;;;;;;;4996478;28;20056;-86
2022/05/30 05:20:38;;;;;;;3.53;1.67;;;;;;;;;;5015495;28;20042;-84
2022/05/30 05:23:04;;;;;;;3.42;2.10;;;;;;;;;;4999250;28;20567;-85
2022/05/30 05:25:30;;;;;;;6.65;1.98;;;;;;;;;;4999347;28;20405;-87
2022/05/30 05:27:57;;;;;;;1.73;1.60;;;;;;;;;;4998609;28;20135;-86
2022/05/30 05:30:23;;;;;;;4.10;1.50;;;;;;;;;;5011015;28;20037;-86
2022/05/30 05:32:49;;;;;;;2.75;1.27;;;;;;;;;;5029926;28;20049;-87
2022/05/30 05:35:15;;;;;;;1.50;1.33;;;;;;;;;;4997477;28;20113;-84
2022/05/30 05:37:41;;;;;;;1.50;1.20;;;;;;;;;;4994775;28;20057;-85
2022/05/30 05:40:07;;;;;;;2.10;1.00;;;;;;;;;;5007216;28;20053;-86
2022/05/30 05:42:33;;;;;;;1.48;1.10;;;;;;;;;;5033513;28;20041;-85
2022/05/30 05:44:59;;;;;;;1.60;0.90;;;;;;;;;;4985133;28;20568;-87
2022/05/30 05:47:25;;;;;;;1.20;0.80;;;;;;;;;;5016813;28;20046;-86
2022/05/30 05:49:51;;;;;;;1.70;1.00;;;;;;;;;;5032194;28;20128;-87
2022/05/30 05:52:17;;;;;;;16.77;1.40;;;;;;;;;;5000321;28;20045;-86
2022/05/30 05:54:44;;;;;;;2.13;1.08;;;;;;;;;;5020367;28;20105;-86
2022/05/30 05:57:10;;;;;;;2.67;0.90;;;;;;;;;;5010976;28;20045;-87
2022/05/30 05:59:36;;;;;;;1.60;1.10;;;;;;;;;;5002519;28;20100;-86
2022/05/30 06:02:02;;;;;;;2.15;1.00;;;;;;;;;;5016262;28;20038;-87
2022/05/30 06:04:28;;;;;;;1.55;1.00;;;;;;;;;;5012591;28;20134;-86
2022/05/30 06:06:54;;;;;;;3.45;1.30;;;;;;;;;;5017157;28;20124;-87
2022/05/30 06:09:20;;;;;;;2.70;1.30;;;;;;;;;;5015992;28;20045;-87
2022/05/30 06:11:46;;;;;;;2.60;1.00;;;;;;;;;;5015792;28;20206;-86
2022/05/30 06:14:12;;;;;;;1.20;1.10;;;;;;;;;;5013064;28;20057;-87
2022/05/30 06:16:40;;;;;;;3.10;1.30;;;;;;;;;;5018934;28;20053;-85
2022/05/30 06:19:06;;;;;;;3.95;1.15;;;;;;;;;;5015774;28;20049;-85
2022/05/30 06:21:33;;;;;;;3.38;1.30;;;10.10;99.90;;;;;;4999157;28;20483;-85
2022/05/30 06:24:00;;;;;;;3.88;1.67;;;10.00;99.90;;;;;;5015461;28;20132;-85
2022/05/30 06:26:26;;;;;;;2.53;1.45;;;;;;;;;;4998405;28;20091;-85
2022/05/30 06:28:54;;;;;;;2.22;1.45;;;;;;;;;;5003500;28;20044;-84
2022/05/30 06:31:22;;;;;;;3.13;1.67;;;;;;;;;;5018214;28;20080;-85
2022/05/30 06:33:48;;;;;;;2.63;1.65;;;10.30;99.90;;;;;;5033777;28;20053;-84
2022/05/30 06:36:20;;;;;;;2.90;1.10;;;;;;;;;;5035109;28;20405;-85
2022/05/30 06:38:47;;;;;;;1.80;1.05;;;;;;;;;;5035450;28;20041;-84
2022/05/30 06:41:15;;;;;;;1.65;0.95;;;;;;;;;;5036417;28;20040;-85
2022/05/30 06:43:41;;;;;;;1.25;1.10;;;;;;;;;;5035226;28;20045;-84
2022/05/30 06:46:08;;;;;;;1.20;0.90;;;;;;;;;;5037494;28;20413;-85
2022/05/30 06:48:34;;;;;;;1.13;0.93;;;;;;;;;;5018921;28;20076;-87
2022/05/30 06:51:09;;;;;;;4.72;1.42;;;10.50;99.90;;;;;;5003451;28;20041;-84
2022/05/30 06:53:35;;;;;;;4.07;0.90;;;;;;;;;;5030975;28;20128;-85
2022/05/30 06:56:01;;;;;;;1.13;1.00;;;;;;;;;;5022721;28;20041;-84
2022/05/30 06:58:28;;;;;;;3.60;1.10;;;;;;;;;;5049995;28;20049;-85
2022/05/30 07:01:02;;;;;;;1.92;0.90;;;10.70;99.90;;;;;;5035256;28;20132;-84
2022/05/30 07:03:28;;;;;;;3.97;1.13;;;;;;;;;;5034961;28;20044;-84
2022/05/30 07:05:54;;;;;;;2.25;1.10;;;;;;;;;;5019840;28;20073;-84
2022/05/30 07:08:23;;;;;;;1.80;1.27;;;;;;;;;;5018637;28;20052;-84
2022/05/30 07:10:49;;;;;;;1.63;1.17;;;;;;;;;;5046465;28;20041;-84
2022/05/30 07:13:15;;;;;;;2.33;0.95;;;;;;;;;;5035565;28;20516;-84
2022/05/30 07:15:42;;;;;;;3.45;1.20;;;;;;;;;;5035569;28;20117;-84
2022/05/30 07:18:13;;;;;;;2.28;1.00;;;10.70;99.90;;;;;;5018388;28;20106;-84
2022/05/30 07:20:39;;;;;;;2.83;0.82;;;;;;;;;;5018050;28;20152;-84
2022/05/30 07:23:06;;;;;;;3.92;0.90;;;;;;;;;;5033765;28;20041;-85
2022/05/30 07:25:35;;;;;;;6.65;1.45;;;10.80;99.90;;;;;;5034811;28;20048;-84
2022/05/30 07:28:01;;;;;;;1.25;1.00;;;;;;;;;;5017656;28;20040;-84
2022/05/30 07:30:28;;;;;;;1.30;1.10;;;;;;;;;;5028517;28;20076;-85
2022/05/30 07:32:55;;;;;;;0.85;0.85;;;10.80;99.90;;;;;;5035901;28;20064;-86
2022/05/30 07:35:21;;;;;;;5.47;1.52;;;;;;;;;;5018421;28;20473;-85
2022/05/30 07:37:47;;;;;;;2.17;1.05;;;;;;;;;;5025262;28;20048;-86
2022/05/30 07:40:14;;;;;;;1.80;1.08;;;;;;;;;;5028629;28;20113;-86
2022/05/30 07:42:41;;;;;;;6.10;1.50;;;;;;;;;;5032899;28;20045;-85
2022/05/30 07:45:07;;;;;;;1.35;1.13;;;;;;;;;;5041406;28;20053;-86
2022/05/30 07:47:33;;;;;;;1.98;1.00;;;;;;;;;;5042927;28;20493;-86
2022/05/30 07:50:02;;;;;;;5.03;1.38;;;;;;;;;;5041106;28;20044;-86
2022/05/30 07:52:32;;;;;;;1.05;0.98;;;;;;;;;;5021040;28;20126;-86
2022/05/30 07:54:58;;;;;;;1.70;1.13;;;;;;;;;;5021804;28;20542;-87
2022/05/30 08:00:14;;;;;;;0.70;0.70;;;11.40;99.90;;;;;;5038156;28;20377;-87
2022/05/30 08:02:40;;;;;;;1.45;0.60;;;;;;;;;;5020282;28;20045;-86
2022/05/30 08:05:07;;;;;;;2.40;0.63;;;;;;;;;;5031445;28;20112;-85
2022/05/30 08:07:33;;;;;;;3.40;0.63;;;;;;;;;;5040757;28;20045;-86
2022/05/30 08:09:59;;;;;;;1.67;0.70;;;;;;;;;;5024786;28;20098;-86
2022/05/30 08:12:26;;;;;;;0.95;0.63;;;;;;;;;;5035718;28;20056;-85
2022/05/30 08:14:55;;;;;;;0.65;0.65;;;;;;;;;;5018444;28;20112;-83
2022/05/30 08:17:21;;;;;;;7.13;1.33;;;;;;;;;;5036141;28;20132;-83
2022/05/30 08:19:48;;;;;;;2.20;0.63;;;;;;;;;;5037489;28;20049;-86
2022/05/30 08:22:18;;;;;;;1.60;0.90;;;;;;;;;;5037785;28;20448;-85
2022/05/30 08:24:47;;;;;;;5.18;1.77;;;;;;;;;;5054606;28;20045;-85
2022/05/30 08:27:14;;;;;;;0.88;0.88;;;;;;;;;;5037642;28;20064;-86
2022/05/30 08:29:42;;;;;;;4.20;1.33;;;;;;;;;;5037052;28;20045;-85
2022/05/30 08:32:09;;;;;;;1.73;1.00;;;;;;;;;;5037312;28;20061;-86
2022/05/30 08:34:36;;;;;;;1.70;1.30;;;;;;;;;;5038285;28;20485;-85
2022/05/30 08:37:02;;;;;;;1.25;1.02;;;;;;;;;;5034992;28;20496;-86
2022/05/30 08:42:12;;;;;;;1.13;0.90;;;;;;;;;;5040028;28;20085;-85
2022/05/30 08:44:40;;;;;;;2.22;1.00;;;;;;;;;;5055777;28;20051;-84
2022/05/30 08:47:44;;;;;;;6.43;1.05;;;11.00;99.90;;;;;;5040017;28;20033;-85
2022/05/30 08:50:22;;;;;;;2.25;1.20;;;;;;;;;;5019259;28;20504;-85
2022/05/30 08:53:07;;;;;;;1.92;1.20;;;;;;;;;;5017375;28;20144;-88
2022/05/30 08:55:45;;;;;;;3.03;1.25;;;;;;;;;;5056463;28;20040;-85
2022/05/30 08:58:11;;;;;;;3.50;1.27;;;;;;;;;;5055624;28;20048;-84
2022/05/30 09:00:41;;;;;;;2.25;1.48;;;;;;;;;;5027188;28;20045;-85
2022/05/30 09:03:10;;;;;;;1.25;0.80;;;;;;;;;;5016777;28;20064;-85
2022/05/30 09:05:42;;;;;;;1.45;0.68;;;;;;;;;;5033458;28;20056;-85
2022/05/30 09:08:10;;;;;;;1.13;0.70;;;;;;;;;;5016666;28;20183;-85
2022/05/30 09:10:45;;;;;;;1.60;0.85;;;;;;;;;;5016968;28;20101;-85
2022/05/30 09:13:37;;;;;;;1.52;0.70;;;11.50;99.90;;;;;;5037933;28;20052;-85
2022/05/30 09:16:32;;;;;;;3.40;0.93;;;11.60;99.90;;;;;;5026522;28;20060;-84
2022/05/30 09:18:59;;;;;;;0.85;0.80;;;;;;;;;;5019931;28;20057;-85
2022/05/30 09:21:31;;;;;;;4.43;0.90;;;11.60;99.90;;;;;;5036623;28;20041;-86
2022/05/30 09:23:58;;;;;;;0.70;0.70;;;;;;;;;;5035825;28;20104;-84
2022/05/30 09:26:33;;;;;;;4.97;1.10;;;;;;;;;;5019717;28;20456;-86
2022/05/30 09:29:11;;;;;;;1.35;0.82;;;12.00;99.90;;;;;;5019933;28;20045;-86
2022/05/30 09:31:44;;;;;;;1.13;0.60;;;;;;;;;;5036028;28;20080;-85
2022/05/30 09:34:29;;;;;;;2.03;0.95;;;;;;;;;;5018993;28;20049;-85
2022/05/30 09:36:55;;;;;;;1.20;0.90;;;;;;;;;;5016049;28;20045;-85
2022/05/30 09:39:23;;;;;;;0.73;0.73;;;;;;;;;;5026971;28;20106;-85
2022/05/30 09:41:54;;;;;;;0.95;0.85;;;;;;;;;;5020286;28;20124;-86
2022/05/30 09:44:26;;;;;;;3.75;1.00;;;;;;;;;;5036429;28;20048;-85
2022/05/30 09:46:54;;;;;;;1.05;0.90;;;;;;;;;;5019477;28;20584;-85
2022/05/30 09:49:23;;;;;;;0.70;0.70;;;;;;;;;;5036760;28;20447;-86
2022/05/30 09:51:54;;;;;;;4.55;1.20;;;;;;;;;;5021821;28;20052;-85
2022/05/30 09:54:26;;;;;;;0.50;0.50;;;;;;;;;;5033491;28;20048;-85
2022/05/30 09:57:05;;;;;;;2.10;0.93;;;;;;;;;;5035872;28;20041;-84
2022/05/30 09:59:31;;;;;;;5.03;1.45;;;;;;;;;;5019805;28;20049;-86
2022/05/30 10:01:58;;;;;;;1.20;1.08;;;;;;;;;;5019949;28;20047;-83
2022/05/30 10:04:38;;;;;;;1.05;0.82;;;11.90;99.90;;;;;;5037592;28;20392;-82
2022/05/30 10:07:21;;;;;;;1.00;0.95;;;11.80;99.90;;;;;;5019041;28;20485;-82
2022/05/30 10:09:55;;;;;;;1.25;1.02;;;;;;;;;;5001492;28;20041;-82
2022/05/30 10:12:31;;;;;;;2.90;1.25;;;;;;;;;;5055180;28;20052;-82
2022/05/30 10:14:57;;;;;;;1.85;1.02;;;;;;;;;;5034735;28;20114;-82
2022/05/30 10:17:31;;;;;;;1.05;0.98;;;;;;;;;;5035218;28;20501;-83
2022/05/30 10:19:57;;;;;;;;;;;11.60;99.90;;;;;;5053306;28;20063;-82
2022/05/30 10:28:49;;;;;;;1.23;0.90;;;11.70;99.90;;;;;;5052979;28;20465;-83
2022/05/30 10:31:24;;;;;;;3.13;1.10;;;;;;;;;;5035060;28;20128;-83
2022/05/30 10:34:09;;;;;;;2.05;1.40;;;;;;;;;;5052788;28;20057;-83
2022/05/30 10:36:54;;;;;;;2.45;1.00;;;;;;;;;;5034491;28;20049;-83
2022/05/30 10:39:20;;;;;;;;;;;;;;;;;;5052445;28;20045;-83
2022/05/30 10:41:57;;;;;;;2.20;1.60;;;11.70;99.90;;;;;;5051429;28;19927;-83
2022/05/30 10:44:30;;;;;;;2.15;0.75;;;11.80;99.90;;;;;;5018200;28;20045;-83
2022/05/30 10:47:11;;;;;;;3.58;0.82;;;;;;;;;;5034911;28;20101;-83
2022/05/30 10:49:46;;;;;;;1.92;0.77;;;11.90;99.90;;;;;;5018125;28;20056;-83
2022/05/30 10:52:12;;;;;;;0.90;0.77;;;;;;;;;;5019808;28;20049;-83
2022/05/30 10:54:40;;;;;;;1.08;0.60;;;;;;;;;;5017918;28;20080;-83
2022/05/30 10:57:10;;;;;;;2.45;0.82;;;12.10;99.90;;;;;;5034319;28;20045;-83
2022/05/30 10:59:46;;;;;;;0.82;0.60;;;;;;;;;;5018299;28;20052;-84
2022/05/30 11:02:32;;;;;;;1.63;0.73;;;12.10;99.90;;;;;;5033464;28;20564;-84
2022/05/30 11:05:06;;;;;;;0.80;0.80;;;;;;;;;;5042454;28;20103;-82
2022/05/30 11:07:36;;;;;;;0.60;0.60;;;;;;;;;;5017648;28;20099;-83
2022/05/30 11:10:29;;;;;;;4.88;1.02;;;12.40;99.90;;;;;;5034569;28;20057;-82
2022/05/30 11:13:05;;;;;;;3.65;1.00;;;;;;;;;;5034236;28;20041;-84
2022/05/30 11:15:43;;;;;;;0.60;0.60;;;12.30;99.90;;;;;;5017800;28;20041;-82
2022/05/30 11:18:55;;;;;;;2.58;0.80;;;12.40;99.90;;;;;;5034291;28;20400;-83
2022/05/30 11:21:30;;;;;;;3.25;0.75;;;;;;;;;;4936488;28;20059;-84
2022/05/30 11:23:56;;;;;;;0.93;0.80;;;;;;;;;;4954251;28;20573;-83
2022/05/30 11:26:25;;;;;;;2.08;0.77;;;;;;;;;;4955347;28;20058;-83
2022/05/30 11:29:03;;;;;;;5.03;1.17;;;12.50;99.90;;;;;;4955298;28;20139;-83
2022/05/30 11:31:47;;;;;;;2.22;0.90;;;;;;;;;;4939318;28;20039;-83
2022/05/30 11:34:39;;;;;;;1.10;1.00;;;12.50;99.90;;;;;;4970550;28;20511;-83
2022/05/30 11:37:23;;;;;;;4.50;1.45;;;;;;;;;;4955212;28;20054;-82
2022/05/30 11:40:29;;;;;;;5.38;1.38;;;12.40;99.90;;;;;;4955174;28;20064;-82
2022/05/30 11:43:06;;;;;;;0.90;0.90;;;;;;;;;;4860601;29;20104;-82
2022/05/30 11:45:53;;;;;;;2.45;1.20;;;;;;;;;;4876622;29;20490;-82
2022/05/30 11:48:38;;;;;;;5.88;1.10;;;;;;;;;;4875052;29;20053;-82
2022/05/30 11:51:14;;;;;;;2.05;0.90;;;;;;;;;;4894218;29;20489;-85
2022/05/30 11:54:13;;;;;;;1.52;1.00;;;12.30;99.90;;;;;;4894615;29;20139;-83
2022/05/30 11:57:08;;;;;;;2.78;1.10;;;12.30;99.90;;;;;;4804473;29;20059;-83
2022/05/30 11:59:40;;;;;;;1.63;1.23;;;;;;;;;;4805571;29;20062;-83
2022/05/30 12:02:11;;;;;;;1.63;1.00;;;;;;;;;;4804768;29;20127;-82
2022/05/30 12:04:52;;;;;;;5.72;1.45;;;;;;;;;;4800911;29;20133;-82
2022/05/30 12:07:33;;;;;;;2.28;1.20;;;;;;;;;;4802488;29;20106;-83
2022/05/30 12:10:07;;;;;;;1.75;1.23;;;;;;;;;;4820573;29;20471;-83
2022/05/30 12:13:18;;;;;;;1.35;1.25;;;12.50;99.90;;;;;;4805382;29;20408;-82
2022/05/30 12:16:02;;;;;;;2.85;0.95;;;;;;;;;;4820682;29;20444;-83
2022/05/30 12:24:30;;;;;;;1.10;0.93;;;12.40;99.90;;;;;;4916693;29;20051;-82
2022/05/30 12:26:58;;;;;;;1.23;0.95;;;;;;;;;;4897363;29;20060;-86
2022/05/30 12:29:30;;;;;;;3.20;1.08;;;;;;;;;;4894840;29;20138;-83
2022/05/30 12:32:34;;;;;;;1.40;1.10;;;;;;;;;;4898195;29;20577;-83
2022/05/30 12:35:10;;;;;;;2.83;1.00;;;;;;;;;;5017807;28;20068;-83
2022/05/30 12:37:44;;;;;;;2.20;1.60;;;;;;;;;;4997301;28;20071;-85
2022/05/30 12:40:30;;;;;;;1.30;1.20;;;;;;;;;;4998559;28;20489;-85
2022/05/30 12:43:06;;;;;;;2.20;1.45;;;;;;;;;;5000810;28;20033;-84
2022/05/30 12:45:32;;;;;;;1.13;0.70;;;;;;;;;;5001026;28;20045;-85
2022/05/30 12:47:58;;;;;;;2.42;1.42;;;;;;;;;;5000434;28;20038;-84
2022/05/30 12:50:31;;;;;;;7.60;1.73;;;;;;;;;;5016953;28;20512;-84
2022/05/30 12:53:01;;;;;;;2.30;1.10;;;;;;;;;;5015660;28;20091;-83
2022/05/30 12:55:53;;;;;;;1.90;1.30;;;;;;;;;;5017023;28;20088;-84
2022/05/30 12:58:46;;;;;;;3.63;1.42;;;;;;;;;;5013159;28;20049;-84
2022/05/30 13:01:23;;;;;;;2.40;1.42;;;;;;;;;;4939489;28;20082;-84
2022/05/30 13:04:31;;;;;;;4.45;1.35;;;;;;;;;;4972166;28;20079;-83
2022/05/30 13:07:01;;;;;;;4.45;1.52;;;;;;;;;;4936253;28;20055;-83
2022/05/30 13:09:46;;;;;;;4.10;1.50;;;;;;;;;;4933655;29;20639;-83
2022/05/30 13:12:17;;;;;;;3.42;1.20;;;;;;;;;;4900360;29;20059;-83
2022/05/30 13:14:49;;;;;;;0.98;0.98;;;;;;;;;;4898918;29;20150;-85
2022/05/30 13:17:18;;;;;;;1.75;1.10;;;;;;;;;;4915721;29;20102;-85
2022/05/30 13:19:49;;;;;;;1.85;1.10;;;12.60;99.90;;;;;;4900143;29;20505;-84
2022/05/30 13:22:18;;;;;;;6.03;1.50;;;12.90;99.90;;;;;;4897382;29;20512;-85
2022/05/30 13:24:44;;;;;;;1.33;1.23;;;;;;;;;;4897941;29;20067;-85
2022/05/30 13:27:11;;;;;;;3.28;1.08;;;;;;;;;;4884652;29;20433;-84
2022/05/30 13:29:39;;;;;;;1.17;1.15;;;13.10;99.90;;;;;;4899663;29;20092;-84
2022/05/30 13:32:14;;;;;;;3.72;1.52;;;13.00;99.90;;;;;;4897146;29;20060;-85
2022/05/30 13:34:48;;;;;;;4.13;1.10;;;;;;;;;;4891246;29;20629;-84
2022/05/30 13:37:23;;;;;;;1.60;1.10;;;13.20;99.90;;;;;;4889345;28;20406;-84
2022/05/30 13:39:52;;;;;;;3.08;1.20;;;13.30;99.90;;;;;;4957417;28;20096;-83
2022/05/30 13:42:18;;;;;;;1.73;1.13;;;;;;;;;;4990744;28;20045;-84
2022/05/30 13:44:55;;;;;;;1.13;0.98;;;;;;;;;;5012569;28;20505;-85
2022/05/30 13:47:22;;;;;;;3.95;1.40;;;;;;;;;;5032366;28;20037;-85
2022/05/30 13:49:52;;;;;;;2.78;1.10;;;;;;;;;;5013505;28;20128;-84
2022/05/30 13:52:25;;;;;;;1.25;1.10;;;;;;;;;;4998306;28;20455;-84
2022/05/30 13:54:54;;;;;;;1.27;0.85;;;;;;;;;;5014762;28;20512;-85
2022/05/30 13:57:20;;;;;;;4.10;1.33;;;;;;;;;;5014253;28;20104;-85
2022/05/30 13:59:50;;;;;;;2.97;0.95;;;13.40;99.90;;;;;;5013572;28;20065;-84
2022/05/30 14:02:24;;;;;;;2.17;1.00;;;13.40;99.90;;;;;;5014565;28;20050;-85
2022/05/30 14:04:55;;;;;;;1.92;1.42;;;;;;;;;;5000189;28;20514;-84
2022/05/30 14:07:26;;;;;;;3.13;1.20;;;;;;;;;;5014432;28;20413;-85
2022/05/30 14:09:55;;;;;;;1.55;1.15;;;;;;;;;;5030924;28;20053;-84
2022/05/30 14:12:35;;;;;;;4.28;0.90;;;;;;;;;;5015433;28;20033;-85
2022/05/30 14:15:24;;;;;;;3.13;1.17;;;;;;;;;;5016481;28;20121;-85
2022/05/30 14:17:51;;;;;;;0.60;0.60;;;;;;;;;;4997875;28;20045;-85
2022/05/30 14:20:21;;;;;;;0.80;0.80;;;;;;;;;;5015784;28;20061;-85
2022/05/30 14:22:51;;;;;;;0.50;0.50;;;;;;;;;;4998841;28;20041;-87
2022/05/30 14:25:23;;;;;;;1.05;0.60;;;;;;;;;;4997265;28;20041;-85
2022/05/30 14:27:50;;;;;;;0.55;0.55;;;;;;;;;;5012499;28;20044;-85
2022/05/30 14:30:21;;;;;;;2.88;0.90;;;13.30;99.90;;;;;;5029296;28;20075;-86
2022/05/30 14:33:05;;;;;;;6.15;0.90;;;13.50;99.90;;;;;;5004092;28;20421;-85
2022/05/30 14:35:32;;;;;;;1.25;1.10;;;;;;;;;;5034182;28;20060;-85
2022/05/30 14:37:58;;;;;;;0.80;0.80;;;;;;;;;;5033144;28;20049;-85
2022/05/30 14:40:28;;;;;;;1.95;1.00;;;;;;;;;;5017230;28;20076;-85
2022/05/30 14:42:56;;;;;;;1.33;0.98;;;;;;;;;;5032976;28;20049;-85
2022/05/30 14:45:30;;;;;;;2.00;0.80;;;;;;;;;;5032980;28;20529;-86
2022/05/30 14:48:20;;;;;;;2.30;0.77;;;;;;;;;;5034503;28;20513;-85
2022/05/30 14:50:49;;;;;;;1.92;1.00;;;;;;;;;;4973213;28;20054;-85
2022/05/30 14:53:24;;;;;;;1.45;0.85;;;;;;;;;;4974312;28;20069;-85
2022/05/30 14:56:01;;;;;;;0.95;0.88;;;;;;;;;;4989499;28;20415;-86
2022/05/30 14:58:39;;;;;;;1.75;0.90;;;;;;;;;;4958927;28;20061;-84
2022/05/30 15:01:06;;;;;;;0.98;0.80;;;13.50;99.90;;;;;;4974423;28;20061;-85
2022/05/30 15:06:20;;;;;;;1.20;0.70;;;;;;;;;;4971921;28;20051;-85
2022/05/30 15:08:46;;;;;;;4.20;0.82;;;;;;;;;;4970873;28;20062;-86
2022/05/30 15:11:19;;;;;;;0.85;0.85;;;13.80;99.90;;;;;;4986329;28;20152;-86
2022/05/30 15:13:50;;;;;;;1.15;0.77;;;13.50;99.90;;;;;;4957815;28;20499;-86